sensor_id;sensor_type;location;lat;lon;timestamp;P1;durP1;ratioP1;P2;durP2;ratioP2
20727;SDS011;10525;50.154;8.198;2022-09-27T00:01:50;1.48;;;1.40;;
20727;SDS011;10525;50.154;8.198;2022-09-27T00:04:16;1.90;;;1.80;;
20727;SDS011;10525;50.154;8.198;2022-09-27T00:06:43;1.50;;;1.50;;
20727;SDS011;10525;50.154;8.198;2022-09-27T00:09:11;1.10;;;1.10;;
20727;SDS011;10525;50.154;8.198;2022-09-27T00:11:38;3.83;;;1.58;;
20727;SDS011;10525;50.154;8.198;2022-09-27T00:14:07;4.75;;;1.77;;
20727;SDS011;10525;50.154;8.198;2022-09-27T00:16:37;2.95;;;1.70;;
20727;SDS011;10525;50.154;8.198;2022-09-27T00:19:05;3.88;;;1.75;;
20727;SDS011;10525;50.154;8.198;2022-09-27T00:21:33;5.05;;;2.15;;
20727;SDS011;10525;50.154;8.198;2022-09-27T00:24:00;9.52;;;2.00;;
20727;SDS011;10525;50.154;8.198;2022-09-27T00:26:28;4.50;;;1.70;;
20727;SDS011;10525;50.154;8.198;2022-09-27T00:28:55;1.98;;;1.67;;
20727;SDS011;10525;50.154;8.198;2022-09-27T00:31:23;8.23;;;2.25;;
20727;SDS011;10525;50.154;8.198;2022-09-27T00:33:53;1.70;;;1.70;;
20727;SDS011;10525;50.154;8.198;2022-09-27T00:36:21;3.33;;;1.88;;
20727;SDS011;10525;50.154;8.198;2022-09-27T00:38:49;1.70;;;1.60;;
20727;SDS011;10525;50.154;8.198;2022-09-27T00:41:18;9.18;;;2.20;;
20727;SDS011;10525;50.154;8.198;2022-09-27T00:43:49;9.48;;;1.83;;
20727;SDS011;10525;50.154;8.198;2022-09-27T00:46:18;3.72;;;1.90;;
20727;SDS011;10525;50.154;8.198;2022-09-27T00:48:48;5.10;;;1.85;;
20727;SDS011;10525;50.154;8.198;2022-09-27T00:51:23;5.60;;;1.80;;
20727;SDS011;10525;50.154;8.198;2022-09-27T00:53:50;8.13;;;2.30;;
20727;SDS011;10525;50.154;8.198;2022-09-27T00:56:21;9.07;;;2.40;;
20727;SDS011;10525;50.154;8.198;2022-09-27T00:58:54;3.10;;;1.90;;
20727;SDS011;10525;50.154;8.198;2022-09-27T01:01:24;5.30;;;2.05;;
20727;SDS011;10525;50.154;8.198;2022-09-27T01:03:55;7.63;;;2.25;;
20727;SDS011;10525;50.154;8.198;2022-09-27T01:06:25;6.40;;;1.73;;
20727;SDS011;10525;50.154;8.198;2022-09-27T01:08:52;4.85;;;2.00;;
20727;SDS011;10525;50.154;8.198;2022-09-27T01:11:22;3.05;;;2.25;;
20727;SDS011;10525;50.154;8.198;2022-09-27T01:14:03;2.30;;;1.73;;
20727;SDS011;10525;50.154;8.198;2022-09-27T01:16:39;2.15;;;1.95;;
20727;SDS011;10525;50.154;8.198;2022-09-27T01:19:12;7.38;;;1.90;;
20727;SDS011;10525;50.154;8.198;2022-09-27T01:21:58;5.28;;;1.92;;
20727;SDS011;10525;50.154;8.198;2022-09-27T01:24:31;3.08;;;2.13;;
20727;SDS011;10525;50.154;8.198;2022-09-27T01:27:21;2.97;;;2.35;;
20727;SDS011;10525;50.154;8.198;2022-09-27T01:30:13;4.30;;;1.95;;
20727;SDS011;10525;50.154;8.198;2022-09-27T01:32:44;11.80;;;2.40;;
20727;SDS011;10525;50.154;8.198;2022-09-27T01:35:19;6.97;;;2.35;;
20727;SDS011;10525;50.154;8.198;2022-09-27T01:37:52;5.07;;;2.63;;
20727;SDS011;10525;50.154;8.198;2022-09-27T01:40:27;7.78;;;2.10;;
20727;SDS011;10525;50.154;8.198;2022-09-27T01:43:03;2.00;;;1.85;;
20727;SDS011;10525;50.154;8.198;2022-09-27T01:45:39;5.88;;;2.08;;
20727;SDS011;10525;50.154;8.198;2022-09-27T01:48:09;2.92;;;1.63;;
20727;SDS011;10525;50.154;8.198;2022-09-27T01:50:41;1.67;;;1.50;;
20727;SDS011;10525;50.154;8.198;2022-09-27T01:53:14;4.47;;;2.00;;
20727;SDS011;10525;50.154;8.198;2022-09-27T01:55:44;5.60;;;2.05;;
20727;SDS011;10525;50.154;8.198;2022-09-27T01:58:15;4.15;;;1.70;;
20727;SDS011;10525;50.154;8.198;2022-09-27T02:00:48;2.10;;;1.88;;
20727;SDS011;10525;50.154;8.198;2022-09-27T02:03:17;2.28;;;1.70;;
20727;SDS011;10525;50.154;8.198;2022-09-27T02:05:47;2.47;;;1.63;;
20727;SDS011;10525;50.154;8.198;2022-09-27T02:08:20;3.80;;;1.73;;
20727;SDS011;10525;50.154;8.198;2022-09-27T02:10:51;4.75;;;1.52;;
20727;SDS011;10525;50.154;8.198;2022-09-27T02:13:23;1.95;;;1.40;;
20727;SDS011;10525;50.154;8.198;2022-09-27T02:16:00;3.35;;;1.83;;
20727;SDS011;10525;50.154;8.198;2022-09-27T02:18:37;1.58;;;1.50;;
20727;SDS011;10525;50.154;8.198;2022-09-27T02:21:14;2.72;;;1.48;;
20727;SDS011;10525;50.154;8.198;2022-09-27T02:23:46;2.60;;;1.50;;
20727;SDS011;10525;50.154;8.198;2022-09-27T02:26:18;1.65;;;1.55;;
20727;SDS011;10525;50.154;8.198;2022-09-27T02:28:50;1.75;;;1.38;;
20727;SDS011;10525;50.154;8.198;2022-09-27T02:31:22;1.00;;;1.00;;
20727;SDS011;10525;50.154;8.198;2022-09-27T02:33:51;1.30;;;1.20;;
20727;SDS011;10525;50.154;8.198;2022-09-27T02:36:23;1.27;;;1.20;;
20727;SDS011;10525;50.154;8.198;2022-09-27T02:38:50;1.30;;;1.20;;
20727;SDS011;10525;50.154;8.198;2022-09-27T02:41:17;1.65;;;1.10;;
20727;SDS011;10525;50.154;8.198;2022-09-27T02:43:46;1.38;;;1.38;;
20727;SDS011;10525;50.154;8.198;2022-09-27T02:46:22;1.50;;;1.40;;
20727;SDS011;10525;50.154;8.198;2022-09-27T02:49:02;1.58;;;1.30;;
20727;SDS011;10525;50.154;8.198;2022-09-27T02:51:45;1.35;;;1.27;;
20727;SDS011;10525;50.154;8.198;2022-09-27T02:54:21;1.52;;;1.50;;
20727;SDS011;10525;50.154;8.198;2022-09-27T02:56:59;2.47;;;1.40;;
20727;SDS011;10525;50.154;8.198;2022-09-27T02:59:34;1.20;;;1.20;;
20727;SDS011;10525;50.154;8.198;2022-09-27T03:02:10;1.48;;;1.00;;
20727;SDS011;10525;50.154;8.198;2022-09-27T03:04:45;2.53;;;1.20;;
20727;SDS011;10525;50.154;8.198;2022-09-27T03:07:16;1.23;;;1.13;;
20727;SDS011;10525;50.154;8.198;2022-09-27T03:09:44;0.90;;;0.90;;
20727;SDS011;10525;50.154;8.198;2022-09-27T03:12:13;1.23;;;1.10;;
20727;SDS011;10525;50.154;8.198;2022-09-27T03:14:44;0.80;;;0.80;;
20727;SDS011;10525;50.154;8.198;2022-09-27T03:17:13;0.80;;;0.80;;
20727;SDS011;10525;50.154;8.198;2022-09-27T03:19:39;1.45;;;0.70;;
20727;SDS011;10525;50.154;8.198;2022-09-27T03:22:07;0.90;;;0.90;;
20727;SDS011;10525;50.154;8.198;2022-09-27T03:24:34;0.80;;;0.80;;
20727;SDS011;10525;50.154;8.198;2022-09-27T03:27:01;0.93;;;0.93;;
20727;SDS011;10525;50.154;8.198;2022-09-27T03:29:27;0.80;;;0.80;;
20727;SDS011;10525;50.154;8.198;2022-09-27T03:31:54;1.10;;;1.00;;
20727;SDS011;10525;50.154;8.198;2022-09-27T03:34:22;0.77;;;0.77;;
20727;SDS011;10525;50.154;8.198;2022-09-27T03:36:49;1.95;;;0.88;;
20727;SDS011;10525;50.154;8.198;2022-09-27T03:39:16;1.10;;;1.10;;
20727;SDS011;10525;50.154;8.198;2022-09-27T03:41:42;1.08;;;1.08;;
20727;SDS011;10525;50.154;8.198;2022-09-27T03:44:09;2.10;;;1.13;;
20727;SDS011;10525;50.154;8.198;2022-09-27T03:46:35;1.05;;;1.05;;
20727;SDS011;10525;50.154;8.198;2022-09-27T03:49:02;1.27;;;1.27;;
20727;SDS011;10525;50.154;8.198;2022-09-27T03:51:30;1.17;;;1.17;;
20727;SDS011;10525;50.154;8.198;2022-09-27T03:53:57;1.95;;;1.20;;
20727;SDS011;10525;50.154;8.198;2022-09-27T03:56:23;9.07;;;1.50;;
20727;SDS011;10525;50.154;8.198;2022-09-27T03:58:50;1.33;;;1.23;;
20727;SDS011;10525;50.154;8.198;2022-09-27T04:01:17;1.15;;;1.00;;
20727;SDS011;10525;50.154;8.198;2022-09-27T04:03:44;1.17;;;1.17;;
20727;SDS011;10525;50.154;8.198;2022-09-27T04:06:10;1.33;;;1.33;;
20727;SDS011;10525;50.154;8.198;2022-09-27T04:08:39;1.20;;;1.20;;
20727;SDS011;10525;50.154;8.198;2022-09-27T04:11:05;1.30;;;1.30;;
20727;SDS011;10525;50.154;8.198;2022-09-27T04:13:32;1.25;;;1.20;;
20727;SDS011;10525;50.154;8.198;2022-09-27T04:15:59;1.00;;;1.00;;
20727;SDS011;10525;50.154;8.198;2022-09-27T04:18:26;1.00;;;1.00;;
20727;SDS011;10525;50.154;8.198;2022-09-27T04:20:53;0.90;;;0.90;;
20727;SDS011;10525;50.154;8.198;2022-09-27T04:23:20;0.90;;;0.90;;
20727;SDS011;10525;50.154;8.198;2022-09-27T04:25:48;3.65;;;1.20;;
20727;SDS011;10525;50.154;8.198;2022-09-27T04:28:15;1.00;;;1.00;;
20727;SDS011;10525;50.154;8.198;2022-09-27T04:30:41;1.05;;;1.05;;
20727;SDS011;10525;50.154;8.198;2022-09-27T04:33:08;1.08;;;1.00;;
20727;SDS011;10525;50.154;8.198;2022-09-27T04:35:35;0.95;;;0.95;;
20727;SDS011;10525;50.154;8.198;2022-09-27T04:38:19;1.30;;;1.00;;
20727;SDS011;10525;50.154;8.198;2022-09-27T04:40:49;0.90;;;0.90;;
20727;SDS011;10525;50.154;8.198;2022-09-27T04:43:16;2.58;;;0.82;;
20727;SDS011;10525;50.154;8.198;2022-09-27T04:45:43;1.20;;;1.20;;
20727;SDS011;10525;50.154;8.198;2022-09-27T04:48:09;0.95;;;0.95;;
20727;SDS011;10525;50.154;8.198;2022-09-27T04:50:36;0.70;;;0.70;;
20727;SDS011;10525;50.154;8.198;2022-09-27T04:53:03;0.90;;;0.90;;
20727;SDS011;10525;50.154;8.198;2022-09-27T04:55:30;1.95;;;1.30;;
20727;SDS011;10525;50.154;8.198;2022-09-27T04:57:58;2.38;;;1.30;;
20727;SDS011;10525;50.154;8.198;2022-09-27T05:00:25;1.00;;;1.00;;
20727;SDS011;10525;50.154;8.198;2022-09-27T05:02:52;1.10;;;1.10;;
20727;SDS011;10525;50.154;8.198;2022-09-27T05:05:19;1.35;;;1.30;;
20727;SDS011;10525;50.154;8.198;2022-09-27T05:07:46;2.08;;;1.30;;
20727;SDS011;10525;50.154;8.198;2022-09-27T05:10:12;1.40;;;1.30;;
20727;SDS011;10525;50.154;8.198;2022-09-27T05:12:39;1.30;;;1.20;;
20727;SDS011;10525;50.154;8.198;2022-09-27T05:15:08;1.45;;;1.38;;
20727;SDS011;10525;50.154;8.198;2022-09-27T05:17:35;1.90;;;1.20;;
20727;SDS011;10525;50.154;8.198;2022-09-27T05:20:02;2.05;;;1.25;;
20727;SDS011;10525;50.154;8.198;2022-09-27T05:22:29;1.05;;;1.05;;
20727;SDS011;10525;50.154;8.198;2022-09-27T05:24:55;0.90;;;0.90;;
20727;SDS011;10525;50.154;8.198;2022-09-27T05:27:22;1.48;;;1.38;;
20727;SDS011;10525;50.154;8.198;2022-09-27T05:29:49;1.55;;;1.27;;
20727;SDS011;10525;50.154;8.198;2022-09-27T05:32:17;2.47;;;1.15;;
20727;SDS011;10525;50.154;8.198;2022-09-27T05:34:43;1.00;;;1.00;;
20727;SDS011;10525;50.154;8.198;2022-09-27T05:37:10;3.40;;;1.30;;
20727;SDS011;10525;50.154;8.198;2022-09-27T05:39:37;1.00;;;1.00;;
20727;SDS011;10525;50.154;8.198;2022-09-27T05:42:03;3.40;;;1.15;;
20727;SDS011;10525;50.154;8.198;2022-09-27T05:44:32;3.72;;;1.30;;
20727;SDS011;10525;50.154;8.198;2022-09-27T05:46:59;1.15;;;1.15;;
20727;SDS011;10525;50.154;8.198;2022-09-27T05:49:29;1.67;;;1.05;;
20727;SDS011;10525;50.154;8.198;2022-09-27T05:51:56;1.20;;;1.10;;
20727;SDS011;10525;50.154;8.198;2022-09-27T05:54:23;1.13;;;1.00;;
20727;SDS011;10525;50.154;8.198;2022-09-27T05:56:52;4.05;;;0.95;;
20727;SDS011;10525;50.154;8.198;2022-09-27T05:59:22;1.20;;;1.10;;
20727;SDS011;10525;50.154;8.198;2022-09-27T06:01:49;1.20;;;1.20;;
20727;SDS011;10525;50.154;8.198;2022-09-27T06:04:15;2.58;;;1.08;;
20727;SDS011;10525;50.154;8.198;2022-09-27T06:06:44;1.05;;;1.05;;
20727;SDS011;10525;50.154;8.198;2022-09-27T06:09:11;1.20;;;1.20;;
20727;SDS011;10525;50.154;8.198;2022-09-27T06:11:39;1.40;;;1.40;;
20727;SDS011;10525;50.154;8.198;2022-09-27T06:14:05;1.65;;;1.50;;
20727;SDS011;10525;50.154;8.198;2022-09-27T06:16:32;1.13;;;1.13;;
20727;SDS011;10525;50.154;8.198;2022-09-27T06:18:59;1.00;;;1.00;;
20727;SDS011;10525;50.154;8.198;2022-09-27T06:21:25;1.17;;;1.17;;
20727;SDS011;10525;50.154;8.198;2022-09-27T06:23:54;2.40;;;0.93;;
20727;SDS011;10525;50.154;8.198;2022-09-27T06:26:21;1.08;;;1.00;;
20727;SDS011;10525;50.154;8.198;2022-09-27T06:28:48;0.90;;;0.90;;
20727;SDS011;10525;50.154;8.198;2022-09-27T06:31:15;0.85;;;0.85;;
20727;SDS011;10525;50.154;8.198;2022-09-27T06:33:41;1.75;;;1.17;;
20727;SDS011;10525;50.154;8.198;2022-09-27T06:36:09;2.63;;;1.00;;
20727;SDS011;10525;50.154;8.198;2022-09-27T06:38:35;1.05;;;1.05;;
20727;SDS011;10525;50.154;8.198;2022-09-27T06:41:04;0.90;;;0.90;;
20727;SDS011;10525;50.154;8.198;2022-09-27T06:43:33;0.90;;;0.90;;
20727;SDS011;10525;50.154;8.198;2022-09-27T06:45:59;1.00;;;1.00;;
20727;SDS011;10525;50.154;8.198;2022-09-27T06:48:29;0.80;;;0.80;;
20727;SDS011;10525;50.154;8.198;2022-09-27T06:50:57;0.90;;;0.90;;
20727;SDS011;10525;50.154;8.198;2022-09-27T06:53:24;1.25;;;0.95;;
20727;SDS011;10525;50.154;8.198;2022-09-27T06:55:54;2.03;;;0.90;;
20727;SDS011;10525;50.154;8.198;2022-09-27T06:58:24;0.85;;;0.85;;
20727;SDS011;10525;50.154;8.198;2022-09-27T07:01:08;1.13;;;0.95;;
20727;SDS011;10525;50.154;8.198;2022-09-27T07:03:35;0.93;;;0.93;;
20727;SDS011;10525;50.154;8.198;2022-09-27T07:06:06;0.98;;;0.98;;
20727;SDS011;10525;50.154;8.198;2022-09-27T07:08:36;0.70;;;0.70;;
20727;SDS011;10525;50.154;8.198;2022-09-27T07:11:04;1.00;;;1.00;;
20727;SDS011;10525;50.154;8.198;2022-09-27T07:13:33;1.02;;;1.02;;
20727;SDS011;10525;50.154;8.198;2022-09-27T07:16:04;0.93;;;0.93;;
20727;SDS011;10525;50.154;8.198;2022-09-27T07:18:31;4.38;;;1.10;;
20727;SDS011;10525;50.154;8.198;2022-09-27T07:20:58;3.70;;;1.02;;
20727;SDS011;10525;50.154;8.198;2022-09-27T07:23:25;0.90;;;0.90;;
20727;SDS011;10525;50.154;8.198;2022-09-27T07:25:53;1.00;;;0.95;;
20727;SDS011;10525;50.154;8.198;2022-09-27T07:28:19;0.93;;;0.93;;
20727;SDS011;10525;50.154;8.198;2022-09-27T07:30:47;0.90;;;0.90;;
20727;SDS011;10525;50.154;8.198;2022-09-27T07:33:14;1.10;;;1.05;;
20727;SDS011;10525;50.154;8.198;2022-09-27T07:35:41;1.05;;;1.05;;
20727;SDS011;10525;50.154;8.198;2022-09-27T07:38:08;1.10;;;1.10;;
20727;SDS011;10525;50.154;8.198;2022-09-27T07:40:37;1.13;;;0.90;;
20727;SDS011;10525;50.154;8.198;2022-09-27T07:43:04;1.15;;;1.15;;
20727;SDS011;10525;50.154;8.198;2022-09-27T07:45:32;1.27;;;1.13;;
20727;SDS011;10525;50.154;8.198;2022-09-27T07:48:00;1.20;;;1.13;;
20727;SDS011;10525;50.154;8.198;2022-09-27T07:50:29;0.88;;;0.88;;
20727;SDS011;10525;50.154;8.198;2022-09-27T07:52:56;1.08;;;1.00;;
20727;SDS011;10525;50.154;8.198;2022-09-27T07:55:23;1.13;;;1.13;;
20727;SDS011;10525;50.154;8.198;2022-09-27T07:57:49;0.95;;;0.95;;
20727;SDS011;10525;50.154;8.198;2022-09-27T08:00:17;1.48;;;1.05;;
20727;SDS011;10525;50.154;8.198;2022-09-27T08:02:44;1.88;;;1.00;;
20727;SDS011;10525;50.154;8.198;2022-09-27T08:05:13;1.27;;;1.10;;
20727;SDS011;10525;50.154;8.198;2022-09-27T08:07:40;0.77;;;0.77;;
20727;SDS011;10525;50.154;8.198;2022-09-27T08:10:07;2.55;;;1.10;;
20727;SDS011;10525;50.154;8.198;2022-09-27T08:12:34;1.08;;;1.00;;
20727;SDS011;10525;50.154;8.198;2022-09-27T08:15:02;0.88;;;0.88;;
20727;SDS011;10525;50.154;8.198;2022-09-27T08:17:29;1.10;;;1.10;;
20727;SDS011;10525;50.154;8.198;2022-09-27T08:19:56;0.93;;;0.90;;
20727;SDS011;10525;50.154;8.198;2022-09-27T08:22:25;1.25;;;1.20;;
20727;SDS011;10525;50.154;8.198;2022-09-27T08:24:52;1.13;;;1.10;;
20727;SDS011;10525;50.154;8.198;2022-09-27T08:27:18;1.15;;;1.10;;
20727;SDS011;10525;50.154;8.198;2022-09-27T08:29:45;1.13;;;0.73;;
20727;SDS011;10525;50.154;8.198;2022-09-27T08:32:12;1.00;;;1.00;;
20727;SDS011;10525;50.154;8.198;2022-09-27T08:34:38;1.08;;;1.08;;
20727;SDS011;10525;50.154;8.198;2022-09-27T08:37:05;1.10;;;1.10;;
20727;SDS011;10525;50.154;8.198;2022-09-27T08:39:33;1.17;;;1.17;;
20727;SDS011;10525;50.154;8.198;2022-09-27T08:42:01;1.10;;;1.00;;
20727;SDS011;10525;50.154;8.198;2022-09-27T08:44:36;1.00;;;1.00;;
20727;SDS011;10525;50.154;8.198;2022-09-27T08:47:10;3.03;;;2.05;;
20727;SDS011;10525;50.154;8.198;2022-09-27T08:49:42;5.30;;;2.72;;
20727;SDS011;10525;50.154;8.198;2022-09-27T08:52:16;1.42;;;1.42;;
20727;SDS011;10525;50.154;8.198;2022-09-27T08:54:47;1.23;;;1.23;;
20727;SDS011;10525;50.154;8.198;2022-09-27T08:57:15;2.20;;;1.10;;
20727;SDS011;10525;50.154;8.198;2022-09-27T08:59:42;0.82;;;0.82;;
20727;SDS011;10525;50.154;8.198;2022-09-27T09:02:16;1.77;;;0.88;;
20727;SDS011;10525;50.154;8.198;2022-09-27T09:04:44;0.88;;;0.88;;
20727;SDS011;10525;50.154;8.198;2022-09-27T09:07:16;1.20;;;1.10;;
20727;SDS011;10525;50.154;8.198;2022-09-27T09:09:58;1.48;;;1.05;;
20727;SDS011;10525;50.154;8.198;2022-09-27T09:12:34;4.18;;;0.90;;
20727;SDS011;10525;50.154;8.198;2022-09-27T09:15:19;0.95;;;0.85;;
20727;SDS011;10525;50.154;8.198;2022-09-27T09:18:01;3.78;;;1.10;;
20727;SDS011;10525;50.154;8.198;2022-09-27T09:20:50;3.10;;;0.85;;
20727;SDS011;10525;50.154;8.198;2022-09-27T09:23:31;0.90;;;0.90;;
20727;SDS011;10525;50.154;8.198;2022-09-27T09:26:12;1.13;;;1.13;;
20727;SDS011;10525;50.154;8.198;2022-09-27T09:28:53;1.17;;;0.82;;
20727;SDS011;10525;50.154;8.198;2022-09-27T09:31:32;1.17;;;1.13;;
20727;SDS011;10525;50.154;8.198;2022-09-27T09:34:08;0.70;;;0.70;;
20727;SDS011;10525;50.154;8.198;2022-09-27T09:36:40;0.82;;;0.82;;
20727;SDS011;10525;50.154;8.198;2022-09-27T09:39:11;0.85;;;0.85;;
20727;SDS011;10525;50.154;8.198;2022-09-27T09:41:54;1.95;;;0.93;;
20727;SDS011;10525;50.154;8.198;2022-09-27T09:44:30;1.92;;;0.70;;
20727;SDS011;10525;50.154;8.198;2022-09-27T09:47:03;1.38;;;0.88;;
20727;SDS011;10525;50.154;8.198;2022-09-27T09:49:40;1.95;;;0.90;;
20727;SDS011;10525;50.154;8.198;2022-09-27T09:52:12;2.13;;;1.00;;
20727;SDS011;10525;50.154;8.198;2022-09-27T09:54:43;1.30;;;1.30;;
20727;SDS011;10525;50.154;8.198;2022-09-27T09:57:16;1.00;;;1.00;;
20727;SDS011;10525;50.154;8.198;2022-09-27T09:59:46;1.00;;;1.00;;
20727;SDS011;10525;50.154;8.198;2022-09-27T10:02:24;1.88;;;0.77;;
20727;SDS011;10525;50.154;8.198;2022-09-27T10:04:55;0.70;;;0.70;;
20727;SDS011;10525;50.154;8.198;2022-09-27T10:07:22;0.75;;;0.75;;
20727;SDS011;10525;50.154;8.198;2022-09-27T10:09:50;0.80;;;0.80;;
20727;SDS011;10525;50.154;8.198;2022-09-27T10:12:20;1.50;;;1.40;;
20727;SDS011;10525;50.154;8.198;2022-09-27T10:14:47;0.90;;;0.90;;
20727;SDS011;10525;50.154;8.198;2022-09-27T10:17:17;1.20;;;0.90;;
20727;SDS011;10525;50.154;8.198;2022-09-27T10:19:46;1.23;;;1.10;;
20727;SDS011;10525;50.154;8.198;2022-09-27T10:22:18;0.80;;;0.80;;
20727;SDS011;10525;50.154;8.198;2022-09-27T10:24:53;0.90;;;0.90;;
20727;SDS011;10525;50.154;8.198;2022-09-27T10:27:23;1.65;;;0.82;;
20727;SDS011;10525;50.154;8.198;2022-09-27T10:29:57;2.30;;;1.00;;
20727;SDS011;10525;50.154;8.198;2022-09-27T10:32:25;0.93;;;0.93;;
20727;SDS011;10525;50.154;8.198;2022-09-27T10:34:55;2.30;;;1.05;;
20727;SDS011;10525;50.154;8.198;2022-09-27T10:37:42;2.38;;;1.10;;
20727;SDS011;10525;50.154;8.198;2022-09-27T10:40:15;1.10;;;1.10;;
20727;SDS011;10525;50.154;8.198;2022-09-27T10:42:53;4.40;;;1.30;;
20727;SDS011;10525;50.154;8.198;2022-09-27T10:45:23;1.60;;;1.10;;
20727;SDS011;10525;50.154;8.198;2022-09-27T10:47:53;0.80;;;0.80;;
20727;SDS011;10525;50.154;8.198;2022-09-27T10:50:21;1.13;;;0.95;;
20727;SDS011;10525;50.154;8.198;2022-09-27T10:52:58;0.80;;;0.80;;
20727;SDS011;10525;50.154;8.198;2022-09-27T10:55:28;1.90;;;1.20;;
20727;SDS011;10525;50.154;8.198;2022-09-27T10:58:00;1.10;;;1.00;;
20727;SDS011;10525;50.154;8.198;2022-09-27T11:00:28;2.15;;;1.10;;
20727;SDS011;10525;50.154;8.198;2022-09-27T11:02:58;1.83;;;0.90;;
20727;SDS011;10525;50.154;8.198;2022-09-27T11:05:31;0.80;;;0.80;;
20727;SDS011;10525;50.154;8.198;2022-09-27T11:08:00;0.93;;;0.93;;
20727;SDS011;10525;50.154;8.198;2022-09-27T11:10:29;1.00;;;1.00;;
20727;SDS011;10525;50.154;8.198;2022-09-27T11:13:06;1.20;;;1.20;;
20727;SDS011;10525;50.154;8.198;2022-09-27T11:15:38;1.17;;;0.98;;
20727;SDS011;10525;50.154;8.198;2022-09-27T11:18:18;1.10;;;1.10;;
20727;SDS011;10525;50.154;8.198;2022-09-27T11:20:52;0.80;;;0.80;;
20727;SDS011;10525;50.154;8.198;2022-09-27T11:23:32;1.35;;;1.08;;
20727;SDS011;10525;50.154;8.198;2022-09-27T11:26:13;0.90;;;0.90;;
20727;SDS011;10525;50.154;8.198;2022-09-27T11:28:53;1.10;;;1.00;;
20727;SDS011;10525;50.154;8.198;2022-09-27T11:31:28;0.98;;;0.98;;
20727;SDS011;10525;50.154;8.198;2022-09-27T11:37:07;1.20;;;1.10;;
20727;SDS011;10525;50.154;8.198;2022-09-27T11:39:44;1.02;;;1.02;;
20727;SDS011;10525;50.154;8.198;2022-09-27T11:42:44;0.90;;;0.90;;
20727;SDS011;10525;50.154;8.198;2022-09-27T11:45:24;1.17;;;1.17;;
20727;SDS011;10525;50.154;8.198;2022-09-27T11:48:02;3.90;;;1.10;;
20727;SDS011;10525;50.154;8.198;2022-09-27T11:53:42;1.95;;;1.40;;
20727;SDS011;10525;50.154;8.198;2022-09-27T11:56:20;1.10;;;1.10;;
20727;SDS011;10525;50.154;8.198;2022-09-27T11:58:58;1.20;;;1.20;;
20727;SDS011;10525;50.154;8.198;2022-09-27T12:01:40;1.83;;;1.20;;
20727;SDS011;10525;50.154;8.198;2022-09-27T12:04:35;1.10;;;1.10;;
20727;SDS011;10525;50.154;8.198;2022-09-27T12:07:14;1.63;;;1.00;;
20727;SDS011;10525;50.154;8.198;2022-09-27T12:09:44;1.20;;;1.20;;
20727;SDS011;10525;50.154;8.198;2022-09-27T12:12:16;1.73;;;1.40;;
20727;SDS011;10525;50.154;8.198;2022-09-27T12:14:46;0.90;;;0.90;;
20727;SDS011;10525;50.154;8.198;2022-09-27T12:17:17;1.00;;;1.00;;
20727;SDS011;10525;50.154;8.198;2022-09-27T12:19:47;1.00;;;1.00;;
20727;SDS011;10525;50.154;8.198;2022-09-27T12:22:18;1.25;;;1.02;;
20727;SDS011;10525;50.154;8.198;2022-09-27T12:24:50;1.30;;;1.10;;
20727;SDS011;10525;50.154;8.198;2022-09-27T12:27:18;1.13;;;0.82;;
20727;SDS011;10525;50.154;8.198;2022-09-27T12:29:51;5.28;;;1.17;;
20727;SDS011;10525;50.154;8.198;2022-09-27T12:32:23;0.98;;;0.98;;
20727;SDS011;10525;50.154;8.198;2022-09-27T12:34:53;0.90;;;0.90;;
20727;SDS011;10525;50.154;8.198;2022-09-27T12:37:27;0.90;;;0.90;;
20727;SDS011;10525;50.154;8.198;2022-09-27T12:39:57;1.00;;;1.00;;
20727;SDS011;10525;50.154;8.198;2022-09-27T12:42:29;1.00;;;1.00;;
20727;SDS011;10525;50.154;8.198;2022-09-27T12:45:01;0.88;;;0.88;;
20727;SDS011;10525;50.154;8.198;2022-09-27T12:47:40;1.35;;;0.88;;
20727;SDS011;10525;50.154;8.198;2022-09-27T12:50:18;1.02;;;1.00;;
20727;SDS011;10525;50.154;8.198;2022-09-27T12:52:53;1.05;;;0.88;;
20727;SDS011;10525;50.154;8.198;2022-09-27T12:58:41;1.40;;;1.30;;
20727;SDS011;10525;50.154;8.198;2022-09-27T13:01:34;1.23;;;1.13;;
20727;SDS011;10525;50.154;8.198;2022-09-27T13:04:23;1.08;;;1.08;;
20727;SDS011;10525;50.154;8.198;2022-09-27T13:07:11;1.75;;;1.05;;
20727;SDS011;10525;50.154;8.198;2022-09-27T13:12:50;1.20;;;1.02;;
20727;SDS011;10525;50.154;8.198;2022-09-27T13:15:20;1.67;;;1.67;;
20727;SDS011;10525;50.154;8.198;2022-09-27T13:17:52;1.10;;;1.10;;
20727;SDS011;10525;50.154;8.198;2022-09-27T13:26:43;3.22;;;1.33;;
20727;SDS011;10525;50.154;8.198;2022-09-27T13:29:22;1.10;;;1.10;;
20727;SDS011;10525;50.154;8.198;2022-09-27T13:32:01;1.55;;;1.20;;
20727;SDS011;10525;50.154;8.198;2022-09-27T13:34:46;1.17;;;1.08;;
20727;SDS011;10525;50.154;8.198;2022-09-27T13:37:27;1.30;;;1.10;;
20727;SDS011;10525;50.154;8.198;2022-09-27T13:43:02;1.08;;;1.08;;
20727;SDS011;10525;50.154;8.198;2022-09-27T13:45:52;1.77;;;1.67;;
20727;SDS011;10525;50.154;8.198;2022-09-27T13:48:22;0.90;;;0.90;;
20727;SDS011;10525;50.154;8.198;2022-09-27T13:50:56;3.78;;;1.33;;
20727;SDS011;10525;50.154;8.198;2022-09-27T13:53:29;1.00;;;1.00;;
20727;SDS011;10525;50.154;8.198;2022-09-27T13:55:59;1.35;;;1.25;;
20727;SDS011;10525;50.154;8.198;2022-09-27T13:58:34;1.20;;;1.10;;
20727;SDS011;10525;50.154;8.198;2022-09-27T14:01:24;1.00;;;1.00;;
20727;SDS011;10525;50.154;8.198;2022-09-27T14:03:54;4.00;;;1.08;;
20727;SDS011;10525;50.154;8.198;2022-09-27T14:06:25;2.38;;;1.20;;
20727;SDS011;10525;50.154;8.198;2022-09-27T14:08:58;1.20;;;1.20;;
20727;SDS011;10525;50.154;8.198;2022-09-27T14:11:29;1.50;;;1.40;;
20727;SDS011;10525;50.154;8.198;2022-09-27T14:13:59;1.20;;;1.20;;
20727;SDS011;10525;50.154;8.198;2022-09-27T14:16:28;0.90;;;0.90;;
20727;SDS011;10525;50.154;8.198;2022-09-27T14:18:58;1.35;;;1.10;;
20727;SDS011;10525;50.154;8.198;2022-09-27T14:21:27;3.53;;;2.45;;
20727;SDS011;10525;50.154;8.198;2022-09-27T14:27:02;1.10;;;1.10;;
20727;SDS011;10525;50.154;8.198;2022-09-27T14:29:38;1.15;;;1.15;;
20727;SDS011;10525;50.154;8.198;2022-09-27T14:32:09;1.10;;;1.10;;
20727;SDS011;10525;50.154;8.198;2022-09-27T14:34:37;1.10;;;1.10;;
20727;SDS011;10525;50.154;8.198;2022-09-27T14:37:04;6.07;;;1.00;;
20727;SDS011;10525;50.154;8.198;2022-09-27T14:39:55;0.90;;;0.90;;
20727;SDS011;10525;50.154;8.198;2022-09-27T14:42:30;1.15;;;0.93;;
20727;SDS011;10525;50.154;8.198;2022-09-27T14:45:02;1.10;;;1.00;;
20727;SDS011;10525;50.154;8.198;2022-09-27T14:47:32;2.85;;;1.45;;
20727;SDS011;10525;50.154;8.198;2022-09-27T14:49:59;1.77;;;1.60;;
20727;SDS011;10525;50.154;8.198;2022-09-27T14:52:29;1.10;;;1.10;;
20727;SDS011;10525;50.154;8.198;2022-09-27T14:55:01;1.50;;;1.00;;
20727;SDS011;10525;50.154;8.198;2022-09-27T14:57:33;0.93;;;0.93;;
20727;SDS011;10525;50.154;8.198;2022-09-27T15:00:08;1.10;;;1.10;;
20727;SDS011;10525;50.154;8.198;2022-09-27T15:02:40;1.85;;;1.05;;
20727;SDS011;10525;50.154;8.198;2022-09-27T15:05:11;0.90;;;0.90;;
20727;SDS011;10525;50.154;8.198;2022-09-27T15:07:41;1.00;;;1.00;;
20727;SDS011;10525;50.154;8.198;2022-09-27T15:10:12;0.88;;;0.88;;
20727;SDS011;10525;50.154;8.198;2022-09-27T15:12:42;3.65;;;0.80;;
20727;SDS011;10525;50.154;8.198;2022-09-27T15:15:12;1.00;;;1.00;;
20727;SDS011;10525;50.154;8.198;2022-09-27T15:17:40;1.23;;;1.15;;
20727;SDS011;10525;50.154;8.198;2022-09-27T15:20:17;1.08;;;1.08;;
20727;SDS011;10525;50.154;8.198;2022-09-27T15:22:47;3.92;;;1.40;;
20727;SDS011;10525;50.154;8.198;2022-09-27T15:25:16;2.45;;;1.63;;
20727;SDS011;10525;50.154;8.198;2022-09-27T15:27:46;1.48;;;1.48;;
20727;SDS011;10525;50.154;8.198;2022-09-27T15:30:16;2.53;;;2.33;;
20727;SDS011;10525;50.154;8.198;2022-09-27T15:32:47;1.30;;;1.17;;
20727;SDS011;10525;50.154;8.198;2022-09-27T15:35:19;1.27;;;1.02;;
20727;SDS011;10525;50.154;8.198;2022-09-27T15:37:49;1.48;;;1.48;;